createdAt,value
2018-09-29T00:00:27.802Z,79.37
2018-09-29T00:02:56.273Z,79.23
2018-09-29T00:05:24.698Z,79.45
2018-09-29T00:07:52.993Z,79.56
2018-09-29T00:10:21.224Z,79.88
2018-09-29T00:12:49.529Z,80.06
2018-09-29T00:15:18.016Z,80.15
2018-09-29T00:17:46.165Z,80.39
2018-09-29T00:20:14.607Z,80.82
2018-09-29T00:22:43.273Z,80.81
2018-09-29T00:25:11.761Z,80.89
2018-09-29T00:27:39.930Z,80.71
2018-09-29T00:30:08.097Z,80.73
2018-09-29T00:32:36.297Z,80.42
2018-09-29T00:35:04.681Z,80.71
2018-09-29T00:37:32.812Z,80.91
2018-09-29T00:40:01.454Z,80.89
2018-09-29T00:42:29.615Z,80.75
2018-09-29T00:44:57.996Z,80.70
2018-09-29T00:47:26.478Z,80.93
2018-09-29T00:49:54.644Z,81.38
2018-09-29T00:52:23.162Z,81.30
2018-09-29T00:54:51.318Z,81.31
2018-09-29T00:57:19.457Z,81.27
2018-09-29T00:59:47.770Z,81.14
2018-09-29T01:02:16.328Z,81.33
2018-09-29T01:04:45.049Z,81.52
2018-09-29T01:07:13.185Z,81.52
2018-09-29T01:09:41.672Z,81.75
2018-09-29T01:12:10.150Z,81.78
2018-09-29T01:14:38.705Z,81.84
2018-09-29T01:17:06.920Z,82.22
2018-09-29T01:19:35.762Z,82.44
2018-09-29T01:22:04.464Z,82.73
2018-09-29T01:24:32.988Z,82.72
2018-09-29T01:27:01.933Z,82.69
2018-09-29T01:29:30.352Z,82.75
2018-09-29T01:31:59.081Z,82.80
2018-09-29T01:34:27.584Z,82.96
2018-09-29T01:36:56.103Z,82.93
2018-09-29T01:39:24.293Z,83.26
2018-09-29T01:41:52.444Z,83.50
2018-09-29T01:44:20.605Z,83.85
2018-09-29T01:46:48.777Z,84.11
2018-09-29T01:49:16.941Z,84.23
2018-09-29T01:51:45.406Z,84.23
2018-09-29T01:54:13.586Z,83.82
2018-09-29T01:56:42.077Z,83.71
2018-09-29T01:59:10.562Z,83.88
2018-09-29T02:01:39.058Z,83.79
2018-09-29T02:04:07.256Z,83.81
2018-09-29T02:06:35.677Z,83.95
2018-09-29T02:09:04.262Z,83.85
2018-09-29T02:11:32.429Z,83.98
2018-09-29T02:14:00.581Z,83.84
2018-09-29T02:16:29.078Z,84.08
2018-09-29T02:18:57.526Z,84.20
2018-09-29T02:21:26.013Z,83.96
2018-09-29T02:23:54.491Z,84.16
2018-09-29T02:26:22.833Z,84.36
2018-09-29T02:28:51.047Z,84.57
2018-09-29T02:31:19.384Z,84.30
2018-09-29T02:33:47.609Z,84.25
2018-09-29T02:36:25.269Z,84.45
2018-09-29T02:38:53.517Z,84.24
2018-09-29T02:41:21.745Z,84.28
2018-09-29T02:43:49.983Z,84.13
2018-09-29T02:46:18.142Z,84.31
2018-09-29T02:48:46.640Z,84.64
2018-09-29T02:51:15.295Z,84.28
2018-09-29T02:53:43.774Z,84.60
2018-09-29T02:56:11.920Z,84.84
2018-09-29T02:58:40.074Z,84.98
2018-09-29T03:01:08.580Z,85.40
2018-09-29T03:03:36.718Z,85.32
2018-09-29T03:06:05.211Z,85.58
2018-09-29T03:08:33.354Z,86.19
2018-09-29T03:11:02.116Z,86.45
2018-09-29T03:13:30.573Z,86.17
2018-09-29T03:15:58.744Z,86.44
2018-09-29T03:18:26.896Z,86.24
2018-09-29T03:20:55.633Z,86.19
2018-09-29T03:23:24.022Z,86.27
2018-09-29T03:25:52.514Z,85.92
2018-09-29T03:28:20.993Z,85.99
2018-09-29T03:30:49.145Z,85.87
2018-09-29T03:33:17.908Z,85.78
2018-09-29T03:35:46.316Z,85.94
2018-09-29T03:38:14.461Z,85.93
2018-09-29T03:40:42.942Z,86.14
2018-09-29T03:43:11.413Z,85.73
2018-09-29T03:45:39.893Z,86.18
2018-09-29T03:48:08.669Z,86.27
2018-09-29T03:50:36.812Z,86.30
2018-09-29T03:53:05.209Z,86.06
2018-09-29T03:55:33.776Z,86.02
2018-09-29T03:58:02.183Z,85.85
2018-09-29T04:00:30.742Z,85.73
2018-09-29T04:02:58.890Z,86.13
2018-09-29T04:05:27.301Z,86.06
2018-09-29T04:07:55.457Z,86.62
2018-09-29T04:10:23.929Z,86.06
2018-09-29T04:12:52.437Z,85.78
2018-09-29T04:15:20.901Z,86.02
2018-09-29T04:17:49.070Z,86.05
2018-09-29T04:20:17.227Z,85.95
2018-09-29T04:22:45.718Z,86.12
2018-09-29T04:25:14.185Z,86.42
2018-09-29T04:27:42.325Z,86.35
2018-09-29T04:30:10.465Z,86.82
2018-09-29T04:32:38.972Z,87.68
2018-09-29T04:35:07.143Z,87.34
2018-09-29T04:37:35.621Z,87.58
2018-09-29T04:40:04.129Z,88.38
2018-09-29T04:42:32.687Z,88.46
2018-09-29T04:47:35.644Z,88.69
2018-09-29T04:50:04.057Z,88.29
2018-09-29T04:52:32.573Z,88.51
2018-09-29T04:55:01.002Z,88.17
2018-09-29T04:57:29.161Z,88.28
2018-09-29T04:59:57.397Z,88.17
2018-09-29T05:02:26.168Z,88.12
2018-09-29T05:04:54.300Z,87.80
2018-09-29T05:07:22.448Z,87.77
2018-09-29T05:09:50.925Z,87.73
2018-09-29T05:12:19.435Z,87.57
2018-09-29T05:14:48.149Z,87.83
2018-09-29T05:17:16.633Z,87.43
2018-09-29T05:19:45.117Z,88.15
2018-09-29T05:22:13.630Z,87.72
2018-09-29T05:24:41.841Z,87.83
2018-09-29T05:27:09.988Z,88.19
2018-09-29T05:29:38.784Z,88.67
2018-09-29T05:32:07.281Z,89.38
2018-09-29T05:34:35.752Z,89.80
2018-09-29T05:37:04.241Z,90.14
2018-09-29T05:39:32.388Z,90.49
2018-09-29T05:42:01.173Z,90.53
2018-09-29T05:45:37.608Z,90.50
2018-09-29T05:48:06.003Z,90.68
2018-09-29T05:50:34.341Z,90.87
2018-09-29T05:53:02.599Z,90.96
2018-09-29T05:55:30.723Z,90.90
2018-09-29T05:57:59.197Z,90.99
2018-09-29T06:00:31.296Z,90.94
2018-09-29T06:03:01.509Z,91.10
2018-09-29T06:05:30.068Z,90.97
2018-09-29T06:07:58.897Z,90.99
2018-09-29T06:10:27.588Z,91.63
2018-09-29T06:12:55.749Z,91.23
2018-09-29T06:15:23.886Z,91.42
2018-09-29T06:17:52.654Z,90.90
2018-09-29T06:20:21.104Z,90.83
2018-09-29T06:22:49.860Z,90.18
2018-09-29T06:25:18.333Z,89.83
2018-09-29T06:27:46.535Z,89.31
2018-09-29T06:30:15.168Z,88.77
2018-09-29T06:32:43.585Z,88.05
2018-09-29T06:35:12.191Z,87.98
2018-09-29T06:37:40.632Z,87.29
2018-09-29T06:40:09.132Z,87.25
2018-09-29T06:42:37.916Z,86.89
2018-09-29T06:45:07.409Z,86.58
2018-09-29T06:47:35.729Z,85.97
2018-09-29T06:50:04.029Z,85.44
2018-09-29T06:52:32.832Z,83.79
2018-09-29T06:55:01.076Z,82.91
2018-09-29T06:57:29.509Z,82.60
2018-09-29T06:59:58.103Z,80.69
2018-09-29T07:02:26.504Z,79.78
2018-09-29T07:04:54.647Z,79.54
2018-09-29T07:07:23.267Z,78.90
2018-09-29T07:09:51.615Z,78.83
2018-09-29T07:12:20.344Z,78.62
2018-09-29T07:14:48.822Z,77.88
2018-09-29T07:17:17.481Z,77.98
2018-09-29T07:19:45.772Z,77.71
2018-09-29T07:22:13.904Z,77.95
2018-09-29T07:24:42.384Z,77.63
2018-09-29T07:27:11.215Z,76.12
2018-09-29T07:29:39.992Z,74.73
2018-09-29T07:32:12.327Z,74.40
2018-09-29T07:34:43.104Z,74.59
2018-09-29T07:37:14.327Z,75.29
2018-09-29T07:39:44.465Z,74.23
2018-09-29T07:42:13.015Z,73.01
2018-09-29T07:44:41.496Z,72.21
2018-09-29T07:47:09.921Z,71.43
2018-09-29T07:49:45.292Z,71.07
2018-09-29T07:52:13.717Z,71.37
2018-09-29T07:54:41.880Z,71.07
2018-09-29T07:57:13.260Z,69.97
2018-09-29T07:59:42.193Z,69.27
2018-09-29T08:02:14.406Z,66.41
2018-09-29T08:04:43.084Z,66.93
2018-09-29T08:07:15.056Z,66.05
2018-09-29T08:09:46.912Z,66.17
2018-09-29T08:12:15.401Z,64.98
2018-09-29T08:15:43.359Z,65.25
2018-09-29T08:18:15.321Z,63.64
2018-09-29T08:20:44.077Z,63.24
2018-09-29T08:23:12.224Z,63.33
2018-09-29T08:25:40.364Z,61.07
2018-09-29T08:28:08.813Z,60.44
2018-09-29T08:30:43.056Z,60.31
2018-09-29T08:33:11.216Z,59.82
2018-09-29T08:35:39.349Z,59.91
2018-09-29T08:38:08.157Z,60.46
2018-09-29T08:40:36.665Z,60.70
2018-09-29T08:43:04.893Z,58.67
2018-09-29T08:45:33.369Z,59.55
2018-09-29T08:48:01.781Z,57.46
2018-09-29T08:50:30.449Z,55.25
2018-09-29T08:52:59.674Z,56.62
2018-09-29T08:55:32.778Z,56.20
2018-09-29T08:58:01.613Z,55.68
2018-09-29T09:00:30.217Z,54.61
2018-09-29T09:02:58.881Z,55.04
2018-09-29T09:05:30.906Z,55.08
2018-09-29T09:07:59.621Z,54.85
2018-09-29T09:10:28.185Z,55.38
2018-09-29T09:12:56.453Z,55.07
2018-09-29T09:15:25.501Z,53.74
2018-09-29T09:17:58.660Z,53.51
2018-09-29T09:20:32.863Z,51.52
2018-09-29T09:23:01.236Z,51.35
2018-09-29T09:25:29.520Z,52.07
2018-09-29T09:27:57.900Z,52.17
2018-09-29T09:30:26.068Z,51.37
2018-09-29T09:32:58.664Z,50.26
2018-09-29T09:35:28.742Z,51.07
2018-09-29T09:37:57.208Z,51.09
2018-09-29T09:40:25.457Z,49.15
2018-09-29T09:42:54.213Z,49.85
2018-09-29T09:45:22.352Z,50.03
2018-09-29T09:47:50.820Z,49.51
2018-09-29T09:50:20.593Z,49.17
2018-09-29T09:52:49.724Z,47.97
2018-09-29T09:55:25.170Z,47.03
2018-09-29T09:57:54.032Z,48.62
2018-09-29T10:00:33.512Z,48.42
2018-09-29T10:03:07.277Z,48.93
2018-09-29T10:05:35.433Z,46.88
2018-09-29T10:08:04.181Z,45.52
2018-09-29T10:10:32.907Z,46.52
2018-09-29T10:13:01.104Z,47.00
2018-09-29T10:15:29.605Z,47.65
2018-09-29T10:17:58.365Z,47.96
2018-09-29T10:20:26.841Z,47.49
2018-09-29T10:22:55.328Z,47.32
2018-09-29T10:25:25.730Z,47.35
2018-09-29T10:27:54.888Z,46.90
2018-09-29T10:30:23.947Z,45.83
2018-09-29T10:32:52.083Z,45.75
2018-09-29T10:35:20.316Z,43.95
2018-09-29T10:37:49.243Z,44.58
2018-09-29T10:40:20.112Z,43.31
2018-09-29T10:42:48.238Z,44.50
2018-09-29T10:45:16.771Z,46.06
2018-09-29T10:47:45.104Z,46.91
2018-09-29T10:50:13.655Z,47.40
2018-09-29T10:52:42.593Z,47.45
2018-09-29T10:55:10.766Z,45.74
2018-09-29T10:57:39.400Z,44.95
2018-09-29T11:00:08.517Z,45.54
2018-09-29T11:02:37.105Z,45.61
2018-09-29T11:05:05.452Z,44.70
2018-09-29T11:07:35.399Z,44.48
2018-09-29T11:10:04.967Z,46.08
2018-09-29T11:12:33.460Z,47.55
2018-09-29T11:15:02.172Z,46.96
2018-09-29T11:17:31.324Z,46.50
2018-09-29T11:19:59.966Z,45.76
2018-09-29T11:22:29.631Z,44.42
2018-09-29T11:24:57.945Z,41.83
2018-09-29T11:27:26.713Z,41.55
2018-09-29T11:29:55.487Z,41.24
2018-09-29T11:32:24.768Z,40.89
2018-09-29T11:34:53.865Z,41.07
2018-09-29T11:37:22.273Z,41.31
2018-09-29T11:39:50.397Z,42.38
2018-09-29T11:42:18.527Z,41.67
2018-09-29T11:44:47.017Z,41.00
2018-09-29T11:47:15.581Z,42.03
2018-09-29T11:49:43.718Z,43.26
2018-09-29T11:52:12.197Z,44.25
2018-09-29T11:54:40.667Z,44.33
2018-09-29T11:57:08.827Z,44.51
2018-09-29T11:59:38.062Z,43.38
2018-09-29T12:02:06.370Z,42.51
2018-09-29T12:04:35.032Z,41.84
2018-09-29T12:07:03.437Z,41.80
2018-09-29T12:09:31.749Z,41.89
2018-09-29T12:12:00.385Z,42.86
2018-09-29T12:14:29.205Z,43.52
2018-09-29T12:16:57.423Z,43.73
2018-09-29T12:19:26.209Z,44.06
2018-09-29T12:21:54.820Z,44.86
2018-09-29T12:24:23.592Z,45.60
2018-09-29T12:26:52.585Z,45.42
2018-09-29T12:29:20.809Z,44.19
2018-09-29T12:31:50.437Z,42.78
2018-09-29T12:34:18.580Z,43.15
2018-09-29T12:36:47.165Z,41.56
2018-09-29T12:39:16.513Z,40.21
2018-09-29T12:41:47.136Z,39.14
2018-09-29T12:44:15.736Z,39.25
2018-09-29T12:46:44.616Z,41.33
2018-09-29T12:49:13.795Z,41.25
2018-09-29T12:51:42.017Z,41.49
2018-09-29T12:54:11.001Z,41.04
2018-09-29T12:56:39.472Z,41.92
2018-09-29T12:59:19.100Z,40.88
2018-09-29T13:01:47.880Z,40.66
2018-09-29T13:04:16.382Z,39.86
2018-09-29T13:06:44.959Z,39.73
2018-09-29T13:09:13.837Z,39.95
2018-09-29T13:11:42.573Z,39.95
2018-09-29T13:14:11.052Z,39.77
2018-09-29T13:16:39.606Z,39.00
2018-09-29T13:19:09.308Z,38.79
2018-09-29T13:21:39.161Z,37.67
2018-09-29T13:24:09.969Z,37.65
2018-09-29T13:26:39.049Z,37.80
2018-09-29T13:29:09.745Z,37.59
2018-09-29T13:31:40.018Z,38.21
2018-09-29T13:34:10.041Z,37.88
2018-09-29T13:36:39.104Z,38.05
2018-09-29T13:39:13.785Z,38.13
2018-09-29T13:41:42.557Z,38.44
2018-09-29T13:44:14.440Z,38.07
2018-09-29T13:46:42.666Z,37.60
2018-09-29T13:49:13.970Z,37.39
2018-09-29T13:51:43.753Z,37.66
2018-09-29T13:54:12.533Z,37.32
2018-09-29T13:56:40.973Z,37.67
2018-09-29T13:59:12.420Z,39.39
2018-09-29T14:01:44.994Z,38.86
2018-09-29T14:04:16.333Z,39.87
2018-09-29T14:06:45.769Z,40.28
2018-09-29T14:09:14.325Z,39.94
2018-09-29T14:11:46.418Z,39.31
2018-09-29T14:14:16.624Z,37.70
2018-09-29T14:16:45.149Z,36.73
2018-09-29T14:19:14.945Z,36.11
2018-09-29T14:21:44.206Z,36.54
2018-09-29T14:24:13.008Z,37.08
2018-09-29T14:26:41.757Z,37.81
2018-09-29T14:29:12.814Z,37.96
2018-09-29T14:31:41.309Z,38.27
2018-09-29T14:34:13.046Z,37.57
2018-09-29T14:36:42.458Z,37.44
2018-09-29T14:39:11.187Z,37.34
2018-09-29T14:41:40.315Z,37.86
2018-09-29T14:44:10.012Z,38.56
2018-09-29T14:46:38.961Z,37.73
2018-09-29T14:49:08.789Z,37.38
2018-09-29T14:51:37.766Z,37.70
2018-09-29T14:54:06.799Z,39.09
2018-09-29T14:56:35.349Z,38.59
2018-09-29T14:59:05.102Z,38.80
2018-09-29T15:01:33.713Z,39.64
2018-09-29T15:04:02.296Z,39.11
2018-09-29T15:06:31.223Z,39.49
2018-09-29T15:08:59.981Z,38.53
2018-09-29T15:11:28.453Z,38.95
2018-09-29T15:13:57.188Z,38.66
2018-09-29T15:16:25.693Z,39.06
2018-09-29T15:18:53.899Z,39.85
2018-09-29T15:21:22.373Z,39.75
2018-09-29T15:23:50.541Z,40.93
2018-09-29T15:26:19.033Z,40.44
2018-09-29T15:28:47.719Z,40.10
2018-09-29T15:31:16.140Z,40.23
2018-09-29T15:33:44.301Z,40.15
2018-09-29T15:36:13.391Z,40.29
2018-09-29T15:38:42.052Z,40.80
2018-09-29T15:41:10.483Z,40.86
2018-09-29T15:43:38.956Z,40.71
2018-09-29T15:46:07.313Z,41.27
2018-09-29T15:48:36.131Z,41.36
2018-09-29T15:51:04.444Z,41.64
2018-09-29T15:53:33.225Z,41.33
2018-09-29T15:56:01.689Z,41.30
2018-09-29T15:58:30.446Z,41.08
2018-09-29T16:00:58.928Z,42.15
2018-09-29T16:03:27.501Z,42.75
2018-09-29T16:05:56.215Z,43.08
2018-09-29T16:08:24.697Z,43.10
2018-09-29T16:10:53.072Z,43.32
2018-09-29T16:13:21.301Z,42.87
2018-09-29T16:15:49.822Z,42.59
2018-09-29T16:18:18.247Z,43.06
2018-09-29T16:20:46.753Z,42.39
2018-09-29T16:23:15.001Z,42.22
2018-09-29T16:25:43.169Z,42.55
2018-09-29T16:28:11.341Z,43.17
2018-09-29T16:30:39.833Z,43.76
2018-09-29T16:33:09.555Z,43.79
2018-09-29T16:35:38.033Z,44.52
2018-09-29T16:38:06.181Z,45.28
2018-09-29T16:40:34.689Z,46.57
2018-09-29T16:43:03.449Z,46.48
2018-09-29T16:45:32.232Z,47.21
2018-09-29T16:48:00.385Z,47.69
2018-09-29T16:50:28.905Z,48.51
2018-09-29T16:52:57.098Z,48.77
2018-09-29T16:55:25.606Z,49.89
2018-09-29T16:57:54.390Z,49.99
2018-09-29T17:00:26.889Z,51.01
2018-09-29T17:02:55.092Z,51.82
2018-09-29T17:05:23.289Z,51.91
2018-09-29T17:07:51.479Z,52.50
2018-09-29T17:10:19.659Z,52.32
2018-09-29T17:12:48.990Z,53.17
2018-09-29T17:15:18.185Z,53.87
2018-09-29T17:17:46.672Z,54.23
2018-09-29T17:20:15.705Z,54.61
2018-09-29T17:22:44.152Z,54.59
2018-09-29T17:25:12.438Z,54.80
2018-09-29T17:27:41.204Z,54.49
2018-09-29T17:30:09.861Z,55.82
2018-09-29T17:32:38.416Z,56.61
2018-09-29T17:35:06.623Z,56.91
2018-09-29T17:37:36.102Z,57.21
2018-09-29T17:40:07.553Z,56.91
2018-09-29T17:42:36.472Z,57.91
2018-09-29T17:45:05.000Z,58.18
2018-09-29T17:47:38.538Z,58.35
2018-09-29T17:50:14.465Z,58.61
2018-09-29T17:52:43.083Z,58.43
2018-09-29T17:55:11.888Z,58.13
2018-09-29T17:57:40.140Z,58.33
2018-09-29T18:00:09.809Z,58.90
2018-09-29T18:02:38.117Z,58.61
2018-09-29T18:05:06.437Z,59.49
2018-09-29T18:07:34.936Z,60.41
2018-09-29T18:10:03.701Z,61.20
2018-09-29T18:12:32.756Z,62.09
2018-09-29T18:15:01.393Z,62.14
2018-09-29T18:17:29.541Z,62.11
2018-09-29T18:19:58.174Z,62.62
2018-09-29T18:22:26.680Z,62.68
2018-09-29T18:24:55.193Z,62.60
2018-09-29T18:27:23.672Z,63.76
2018-09-29T18:29:52.169Z,63.95
2018-09-29T18:32:20.480Z,64.25
2018-09-29T18:34:48.748Z,64.09
2018-09-29T18:37:17.543Z,64.60
2018-09-29T18:39:46.558Z,64.02
2018-09-29T18:42:16.858Z,64.13
2018-09-29T18:44:47.905Z,64.42
2018-09-29T18:47:18.753Z,64.18
2018-09-29T18:49:47.628Z,64.52
2018-09-29T18:52:16.119Z,63.93
2018-09-29T18:54:44.245Z,64.31
2018-09-29T18:57:12.831Z,64.26
2018-09-29T18:59:41.696Z,64.46
2018-09-29T19:02:10.150Z,64.76
2018-09-29T19:04:38.387Z,64.59
2018-09-29T19:07:06.865Z,65.48
2018-09-29T19:09:35.264Z,65.30
2018-09-29T19:12:03.776Z,65.70
2018-09-29T19:14:32.293Z,65.94
2018-09-29T19:17:00.777Z,66.67
2018-09-29T19:19:29.497Z,66.63
2018-09-29T19:21:57.995Z,67.33
2018-09-29T19:24:26.446Z,67.58
2018-09-29T19:26:54.614Z,67.90
2018-09-29T19:29:22.749Z,67.87
2018-09-29T19:31:51.237Z,68.20
2018-09-29T19:34:19.705Z,68.83
2018-09-29T19:36:48.068Z,69.28
2018-09-29T19:39:17.048Z,69.09
2018-09-29T19:41:45.726Z,69.53
2018-09-29T19:44:14.220Z,69.78
2018-09-29T19:46:42.532Z,69.88
2018-09-29T19:49:14.142Z,69.51
2018-09-29T19:51:44.048Z,68.92
2018-09-29T19:54:12.772Z,69.05
2018-09-29T19:56:40.952Z,69.56
2018-09-29T20:00:04.005Z,69.22
2018-09-29T20:02:36.365Z,69.40
2018-09-29T20:05:04.873Z,70.14
2018-09-29T20:07:33.659Z,70.34
2018-09-29T20:10:02.189Z,70.89
2018-09-29T20:12:30.854Z,71.12
2018-09-29T20:14:59.386Z,71.16
2018-09-29T20:17:28.165Z,71.45
2018-09-29T20:19:56.503Z,71.09
2018-09-29T20:22:25.069Z,71.12
2018-09-29T20:24:53.866Z,71.58
2018-09-29T20:27:22.602Z,71.85
2018-09-29T20:29:51.100Z,72.25
2018-09-29T20:32:19.644Z,72.39
2018-09-29T20:34:48.066Z,72.72
2018-09-29T20:37:16.529Z,73.54
2018-09-29T20:39:45.216Z,73.44
2018-09-29T20:42:13.728Z,73.24
2018-09-29T20:44:42.122Z,73.42
2018-09-29T20:47:10.873Z,73.95
2018-09-29T20:49:39.032Z,74.23
2018-09-29T20:52:07.590Z,74.84
2018-09-29T20:54:35.761Z,74.95
2018-09-29T20:57:04.139Z,75.37
2018-09-29T20:59:32.944Z,75.40
2018-09-29T21:02:01.094Z,75.73
2018-09-29T21:04:29.573Z,75.32
2018-09-29T21:07:00.151Z,75.42
2018-09-29T21:09:36.294Z,75.27
2018-09-29T21:12:05.010Z,75.44
2018-09-29T21:14:33.549Z,75.25
2018-09-29T21:17:02.124Z,75.52
2018-09-29T21:19:30.603Z,75.32
2018-09-29T21:21:58.907Z,75.38
2018-09-29T21:24:27.955Z,75.34
2018-09-29T21:26:56.328Z,75.02
2018-09-29T21:29:24.760Z,74.92
2018-09-29T21:31:52.893Z,75.00
2018-09-29T21:34:21.124Z,75.28
2018-09-29T21:36:49.925Z,75.45
2018-09-29T21:39:18.133Z,75.27
2018-09-29T21:41:46.881Z,75.93
2018-09-29T21:44:15.030Z,75.92
2018-09-29T21:46:43.165Z,76.21
2018-09-29T21:49:11.316Z,75.95
2018-09-29T21:51:39.954Z,76.18
2018-09-29T21:54:08.442Z,76.08
2018-09-29T21:56:37.121Z,76.12
2018-09-29T21:59:12.877Z,76.06
2018-09-29T22:01:41.376Z,76.10
2018-09-29T22:04:10.037Z,76.09
2018-09-29T22:06:38.491Z,75.73
2018-09-29T22:09:07.832Z,76.26
2018-09-29T22:11:36.347Z,75.97
2018-09-29T22:14:05.064Z,76.00
2018-09-29T22:16:33.531Z,76.05
2018-09-29T22:19:02.100Z,76.32
2018-09-29T22:21:30.866Z,76.31
2018-09-29T22:23:58.996Z,76.30
2018-09-29T22:26:27.129Z,76.77
2018-09-29T22:28:55.567Z,76.94
2018-09-29T22:31:24.033Z,76.93
2018-09-29T22:33:52.787Z,77.44
2018-09-29T22:36:21.201Z,77.63
2018-09-29T22:38:49.672Z,78.38
2018-09-29T22:41:18.113Z,78.41
2018-09-29T22:43:46.240Z,78.96
2018-09-29T22:46:14.696Z,78.87
2018-09-29T22:48:42.861Z,78.87
2018-09-29T22:51:11.294Z,79.22
2018-09-29T22:53:39.436Z,79.79
2018-09-29T22:56:08.278Z,80.72
2018-09-29T22:58:36.408Z,81.20
2018-09-29T23:01:05.191Z,81.43
2018-09-29T23:03:33.673Z,81.93
2018-09-29T23:06:02.061Z,81.90
2018-09-29T23:08:30.689Z,82.10
2018-09-29T23:10:58.965Z,82.18
2018-09-29T23:13:27.613Z,82.19
2018-09-29T23:15:56.009Z,82.58
2018-09-29T23:18:24.729Z,83.21
2018-09-29T23:20:53.428Z,83.30
2018-09-29T23:23:22.210Z,83.69
2018-09-29T23:25:50.397Z,83.97
2018-09-29T23:28:19.172Z,84.54
2018-09-29T23:30:47.676Z,84.65
2018-09-29T23:33:15.920Z,85.06
2018-09-29T23:35:44.392Z,84.89
2018-09-29T23:38:12.875Z,84.84
2018-09-29T23:40:41.058Z,84.79
2018-09-29T23:43:10.447Z,85.09
2018-09-29T23:45:39.207Z,85.73
2018-09-29T23:48:08.022Z,85.77
2018-09-29T23:50:36.481Z,85.50
2018-09-29T23:53:05.161Z,85.75
2018-09-29T23:55:33.682Z,85.58
2018-09-29T23:58:02.502Z,85.92
